Decoded Metar for PAEN (KENAI in AK, USA) (IATA:ENA) | Meteo·Mobile Aviation Weather
aviador You're here:

PAEN Decoded Metar

KENAI in AK, USA
Report Time2018-08-21 09:53:00
UTC Time2018-08-21 10:38:20
Flight Rules vfr VFR
Wind050° at 05 kt
W.Decomp.*RWY 01: 4.7 kt HW 1.8 kt RCW
W.Rank050° ranks 7
Current wind is below 050° avg. (6.3)
Visibility9999 m
Phenomena:N/A
Clouds:Broken 065 Hf
Overcast 110 Hf
Expected CloudBase > 400 ft AGL from Temp-Dew spread
Ceiling6,500 ft
Temp13°C (ISA -2)
Dew Point12°C (94% RH)
AAT11.8°C
QNH1008 hPa
Density Alt230 ft
Elevation89 ft
Report Wrong Elevation
Raw Report
PAEN 210953Z AUTO 05005KT 10SM BKN065 OVC110 13/12 A2978=

Extra information for PAEN:More info

Metar Taf Metar & Taf Last 4 Metars F.Rules Stats Wind Profile Meteogram Temp Stats Airport Information Weather charts Add Link Nearby VenuesMetar ALERT Operation Metar Decoded Social comments

AIRNAV info for PAEN